createdAt,value
2023-02-04T00:00:08.937Z,73.59
2023-02-04T00:02:35.625Z,74.09
2023-02-04T00:05:02.356Z,74.29
2023-02-04T00:07:29.036Z,73.83
2023-02-04T00:09:55.893Z,73.96
2023-02-04T00:12:22.711Z,74.95
2023-02-04T00:14:49.586Z,74.03
2023-02-04T00:17:17.071Z,75.17
2023-02-04T00:19:43.881Z,74.40
2023-02-04T00:22:10.831Z,75.05
2023-02-04T00:24:38.369Z,75.72
2023-02-04T00:27:06.029Z,75.11
2023-02-04T00:29:32.784Z,74.90
2023-02-04T00:31:59.586Z,74.35
2023-02-04T00:34:27.404Z,75.05
2023-02-04T00:36:54.043Z,75.03
2023-02-04T00:39:20.717Z,74.73
2023-02-04T00:41:47.337Z,74.34
2023-02-04T00:44:14.382Z,74.24
2023-02-04T00:46:42.477Z,73.88
2023-02-04T00:49:10.866Z,73.96
2023-02-04T00:51:39.037Z,74.46
2023-02-04T00:54:06.861Z,73.41
2023-02-04T00:56:35.426Z,73.67
2023-02-04T00:59:02.688Z,73.44
2023-02-04T01:01:29.650Z,74.21
2023-02-04T01:03:56.303Z,74.31
2023-02-04T01:06:23.823Z,74.61
2023-02-04T01:08:50.753Z,74.62
2023-02-04T01:11:18.483Z,74.66
2023-02-04T01:13:45.604Z,74.60
2023-02-04T01:16:13.122Z,74.95
2023-02-04T01:18:39.764Z,75.60
2023-02-04T01:21:06.538Z,75.95
2023-02-04T01:23:33.271Z,75.71
2023-02-04T01:26:00.366Z,75.53
2023-02-04T01:28:27.302Z,75.46
2023-02-04T01:30:54.220Z,75.81
2023-02-04T01:33:21.692Z,74.93
2023-02-04T01:35:48.340Z,75.61
2023-02-04T01:38:15.015Z,74.98
2023-02-04T01:40:42.676Z,74.30
2023-02-04T01:43:11.454Z,74.08
2023-02-04T01:45:38.388Z,73.92
2023-02-04T01:48:06.701Z,73.89
2023-02-04T01:50:34.125Z,73.10
2023-02-04T01:53:01.182Z,72.68
2023-02-04T01:55:30.375Z,72.97
2023-02-04T01:57:58.713Z,73.30
2023-02-04T02:00:33.709Z,72.78
2023-02-04T02:03:00.826Z,73.51
2023-02-04T02:05:35.470Z,73.13
2023-02-04T02:08:04.645Z,72.60
2023-02-04T02:10:32.579Z,72.52
2023-02-04T02:12:59.700Z,73.18
2023-02-04T02:15:26.809Z,73.23
2023-02-04T02:17:55.327Z,73.26
2023-02-04T02:20:24.786Z,73.08
2023-02-04T02:23:06.845Z,72.49
2023-02-04T02:25:33.890Z,72.82
2023-02-04T02:28:02.761Z,72.93
2023-02-04T02:30:30.081Z,73.98
2023-02-04T02:32:57.696Z,73.16
2023-02-04T02:35:24.465Z,72.75
2023-02-04T02:37:51.519Z,72.61
2023-02-04T02:40:18.708Z,72.67
2023-02-04T02:42:48.020Z,72.70
2023-02-04T02:45:22.731Z,72.23
2023-02-04T02:47:50.443Z,72.48
2023-02-04T02:50:21.185Z,72.51
2023-02-04T02:52:48.980Z,72.02
2023-02-04T02:55:18.401Z,72.80
2023-02-04T02:57:46.678Z,72.36
2023-02-04T03:00:34.051Z,72.57
2023-02-04T03:03:16.002Z,72.25
2023-02-04T03:05:46.541Z,72.26
2023-02-04T03:08:15.173Z,72.68
2023-02-04T03:10:43.202Z,72.62
2023-02-04T03:13:12.099Z,72.66
2023-02-04T03:15:39.116Z,72.54
2023-02-04T03:18:06.386Z,72.60
2023-02-04T03:20:34.087Z,72.84
2023-02-04T03:23:01.180Z,72.83
2023-02-04T03:25:28.337Z,72.56
2023-02-04T03:27:58.466Z,72.36
2023-02-04T03:30:26.446Z,72.54
2023-02-04T03:32:53.695Z,72.74
2023-02-04T03:35:20.601Z,72.44
2023-02-04T03:37:47.575Z,71.91
2023-02-04T03:40:14.278Z,72.52
2023-02-04T03:42:40.960Z,72.07
2023-02-04T03:45:08.023Z,71.45
2023-02-04T03:47:34.624Z,71.30
2023-02-04T03:50:01.290Z,71.62
2023-02-04T03:52:28.035Z,71.15
2023-02-04T03:54:54.681Z,70.60
2023-02-04T03:57:21.706Z,70.72
2023-02-04T03:59:48.371Z,70.78
2023-02-04T04:02:14.989Z,70.88
2023-02-04T04:04:41.739Z,70.69
2023-02-04T04:07:08.382Z,71.04
2023-02-04T04:09:35.038Z,70.90
2023-02-04T04:12:03.527Z,70.95
2023-02-04T04:14:30.262Z,71.54
2023-02-04T04:16:56.880Z,71.47
2023-02-04T04:19:24.708Z,70.80
2023-02-04T04:21:51.414Z,71.05
2023-02-04T04:24:18.277Z,71.33
2023-02-04T04:26:44.971Z,71.25
2023-02-04T04:29:11.727Z,71.50
2023-02-04T04:31:38.543Z,71.45
2023-02-04T04:34:05.322Z,71.39
2023-02-04T04:36:32.155Z,71.20
2023-02-04T04:38:59.649Z,70.79
2023-02-04T04:41:26.307Z,70.90
2023-02-04T04:43:53.010Z,70.96
2023-02-04T04:46:19.664Z,70.86
2023-02-04T04:48:46.311Z,71.01
2023-02-04T04:51:12.907Z,71.08
2023-02-04T04:53:39.554Z,70.94
2023-02-04T04:56:06.457Z,70.86
2023-02-04T04:58:33.092Z,70.54
2023-02-04T05:00:59.794Z,70.62
2023-02-04T05:03:27.131Z,70.42
2023-02-04T05:05:53.791Z,69.90
2023-02-04T05:08:20.913Z,69.95
2023-02-04T05:10:47.911Z,69.16
2023-02-04T05:13:16.238Z,68.99
2023-02-04T05:15:43.017Z,69.15
2023-02-04T05:18:09.747Z,69.62
2023-02-04T05:20:36.457Z,69.58
2023-02-04T05:23:05.460Z,69.58
2023-02-04T05:25:33.138Z,69.74
2023-02-04T05:27:59.914Z,70.09
2023-02-04T05:30:26.553Z,70.16
2023-02-04T05:32:53.272Z,70.42
2023-02-04T05:35:20.309Z,69.96
2023-02-04T05:37:46.973Z,69.86
2023-02-04T05:40:14.055Z,69.65
2023-02-04T05:42:41.744Z,70.02
2023-02-04T05:45:18.958Z,68.83
2023-02-04T05:47:45.920Z,68.51
2023-02-04T05:50:12.942Z,67.91
2023-02-04T05:52:40.321Z,67.54
2023-02-04T05:55:08.265Z,66.77
2023-02-04T05:57:34.890Z,66.38
2023-02-04T06:00:01.656Z,66.59
2023-02-04T06:02:38.722Z,66.81
2023-02-04T06:05:05.937Z,66.21
2023-02-04T06:07:32.602Z,66.30
2023-02-04T06:10:00.326Z,65.59
2023-02-04T06:12:27.111Z,66.01
2023-02-04T06:14:53.797Z,66.11
2023-02-04T06:17:20.447Z,65.63
2023-02-04T06:19:47.120Z,65.37
2023-02-04T06:22:13.809Z,64.73
2023-02-04T06:24:40.440Z,64.28
2023-02-04T06:27:07.125Z,64.13
2023-02-04T06:29:33.774Z,64.52
2023-02-04T06:32:00.472Z,63.93
2023-02-04T06:34:27.252Z,64.25
2023-02-04T06:36:53.909Z,64.36
2023-02-04T06:39:21.118Z,64.35
2023-02-04T06:41:47.758Z,63.98
2023-02-04T06:44:14.346Z,63.92
2023-02-04T06:46:41.006Z,64.47
2023-02-04T06:49:07.659Z,63.82
2023-02-04T06:51:34.268Z,64.54
2023-02-04T06:54:00.872Z,64.46
2023-02-04T06:56:29.360Z,64.48
2023-02-04T06:58:55.981Z,64.33
2023-02-04T07:01:22.631Z,64.59
2023-02-04T07:03:49.312Z,64.69
2023-02-04T07:06:16.122Z,64.17
2023-02-04T07:08:42.801Z,64.29
2023-02-04T07:11:09.535Z,64.31
2023-02-04T07:13:36.177Z,64.64
2023-02-04T07:16:02.878Z,64.40
2023-02-04T07:18:29.700Z,63.76
2023-02-04T07:20:56.397Z,63.47
2023-02-04T07:23:24.782Z,63.29
2023-02-04T07:25:55.908Z,63.19
2023-02-04T07:28:23.042Z,63.08
2023-02-04T07:30:50.091Z,62.62
2023-02-04T07:33:17.217Z,62.90
2023-02-04T07:35:44.374Z,62.51
2023-02-04T07:38:10.985Z,62.70
2023-02-04T07:40:39.133Z,62.64
2023-02-04T07:43:05.978Z,62.62
2023-02-04T07:45:33.661Z,62.14
2023-02-04T07:48:00.312Z,62.17
2023-02-04T07:50:27.006Z,62.47
2023-02-04T07:52:53.820Z,62.27
2023-02-04T07:55:20.477Z,62.54
2023-02-04T07:57:47.155Z,62.41
2023-02-04T08:00:14.457Z,61.84
2023-02-04T08:02:41.874Z,61.63
2023-02-04T08:05:09.852Z,61.55
2023-02-04T08:07:36.601Z,60.76
2023-02-04T08:10:04.727Z,60.86
2023-02-04T08:12:31.486Z,61.25
2023-02-04T08:14:58.370Z,61.74
2023-02-04T08:17:25.131Z,61.74
2023-02-04T08:19:51.876Z,61.59
2023-02-04T08:22:18.558Z,61.40
2023-02-04T08:24:45.343Z,61.66
2023-02-04T08:27:12.039Z,61.61
2023-02-04T08:29:38.675Z,61.42
2023-02-04T08:32:05.491Z,61.19
2023-02-04T08:34:32.233Z,60.57
2023-02-04T08:36:58.898Z,59.71
2023-02-04T08:39:25.535Z,58.85
2023-02-04T08:41:52.129Z,58.00
2023-02-04T08:44:18.719Z,56.68
2023-02-04T08:46:45.464Z,55.68
2023-02-04T08:49:12.231Z,54.73
2023-02-04T08:51:38.925Z,53.71
2023-02-04T08:54:05.539Z,53.53
2023-02-04T08:56:32.155Z,52.60
2023-02-04T08:58:58.741Z,51.98
2023-02-04T09:01:25.443Z,50.85
2023-02-04T09:03:52.288Z,50.31
2023-02-04T09:06:19.267Z,49.74
2023-02-04T09:08:45.910Z,49.67
2023-02-04T09:11:12.592Z,49.64
2023-02-04T09:13:39.506Z,48.80
2023-02-04T09:16:06.556Z,49.16
2023-02-04T09:18:33.328Z,48.44
2023-02-04T09:21:00.360Z,49.13
2023-02-04T09:23:26.954Z,48.92
2023-02-04T09:25:53.711Z,48.92
2023-02-04T09:28:20.402Z,48.73
2023-02-04T09:30:48.458Z,48.60
2023-02-04T09:33:16.859Z,47.54
2023-02-04T09:35:43.889Z,46.67
2023-02-04T09:38:10.819Z,44.39
2023-02-04T09:40:42.511Z,44.93
2023-02-04T09:43:18.146Z,42.84
2023-02-04T09:45:44.943Z,40.40
2023-02-04T09:48:14.511Z,37.47
2023-02-04T09:50:41.667Z,35.20
2023-02-04T09:53:14.922Z,32.90
2023-02-04T09:55:45.398Z,32.21
2023-02-04T09:58:18.007Z,32.15
2023-02-04T10:00:46.692Z,32.50
2023-02-04T10:03:18.976Z,32.34
2023-02-04T10:05:46.899Z,32.99
2023-02-04T10:08:19.702Z,33.81
2023-02-04T10:10:49.044Z,32.93
2023-02-04T10:13:27.343Z,30.96
2023-02-04T10:15:54.019Z,30.49
2023-02-04T10:18:28.902Z,28.95
2023-02-04T10:21:11.760Z,27.80
2023-02-04T10:23:38.685Z,26.32
2023-02-04T10:26:05.318Z,26.52
2023-02-04T10:28:36.754Z,25.86
2023-02-04T10:31:04.068Z,23.40
2023-02-04T10:33:31.654Z,22.11
2023-02-04T10:35:58.355Z,22.31
2023-02-04T10:38:25.065Z,22.65
2023-02-04T10:41:05.732Z,22.39
2023-02-04T10:43:32.621Z,23.91
2023-02-04T10:46:02.717Z,25.06
2023-02-04T10:48:30.856Z,26.44
2023-02-04T10:50:59.213Z,27.02
2023-02-04T10:53:45.670Z,27.07
2023-02-04T10:56:21.199Z,28.62
2023-02-04T10:58:49.355Z,28.98
2023-02-04T11:01:16.832Z,29.78
2023-02-04T11:03:47.006Z,31.31
2023-02-04T11:06:21.761Z,31.82
2023-02-04T11:08:50.145Z,32.87
2023-02-04T11:11:20.311Z,33.26
2023-02-04T11:13:49.923Z,35.85
2023-02-04T11:16:35.451Z,37.37
2023-02-04T11:19:10.828Z,38.67
2023-02-04T11:21:37.408Z,39.69
2023-02-04T11:24:16.216Z,38.13
2023-02-04T11:26:49.205Z,38.25
2023-02-04T11:29:16.684Z,38.18
2023-02-04T11:31:49.559Z,38.79
2023-02-04T11:34:16.211Z,39.31
2023-02-04T11:36:58.997Z,40.01
2023-02-04T11:39:34.147Z,39.96
2023-02-04T11:42:01.482Z,41.59
2023-02-04T11:44:28.563Z,40.35
2023-02-04T11:46:56.775Z,39.06
2023-02-04T11:49:25.558Z,39.33
2023-02-04T11:52:03.940Z,41.24
2023-02-04T11:54:30.600Z,41.85
2023-02-04T11:56:59.785Z,42.29
2023-02-04T11:59:26.763Z,41.41
2023-02-04T12:02:16.723Z,41.16
2023-02-04T12:04:58.396Z,40.19
2023-02-04T12:07:28.553Z,40.23
2023-02-04T12:09:55.995Z,39.73
2023-02-04T12:12:30.762Z,38.61
2023-02-04T12:15:03.993Z,37.51
2023-02-04T12:17:30.767Z,34.95
2023-02-04T12:19:57.457Z,34.07
2023-02-04T12:22:24.129Z,33.79
2023-02-04T12:24:52.331Z,33.97
2023-02-04T12:27:19.406Z,34.10
2023-02-04T12:29:46.214Z,33.58
2023-02-04T12:32:12.894Z,34.04
2023-02-04T12:34:39.590Z,34.43
2023-02-04T12:37:06.201Z,35.01
2023-02-04T12:39:32.838Z,34.22
2023-02-04T12:41:59.452Z,35.07
2023-02-04T12:44:26.116Z,35.99
2023-02-04T12:46:52.832Z,36.68
2023-02-04T12:49:20.794Z,36.46
2023-02-04T12:51:47.400Z,37.07
2023-02-04T12:54:14.087Z,37.05
2023-02-04T12:56:41.467Z,36.95
2023-02-04T12:59:08.120Z,36.69
2023-02-04T13:01:34.863Z,37.36
2023-02-04T13:04:01.628Z,37.46
2023-02-04T13:06:28.365Z,37.50
2023-02-04T13:08:55.023Z,37.86
2023-02-04T13:11:21.651Z,38.23
2023-02-04T13:13:48.292Z,38.89
2023-02-04T13:16:14.974Z,39.82
2023-02-04T13:18:41.629Z,40.07
2023-02-04T13:21:08.350Z,39.78
2023-02-04T13:23:35.037Z,40.37
2023-02-04T13:26:01.976Z,40.52
2023-02-04T13:28:28.626Z,40.25
2023-02-04T13:30:55.254Z,40.37
2023-02-04T13:33:21.974Z,40.04
2023-02-04T13:35:48.624Z,39.16
2023-02-04T13:38:15.224Z,39.16
2023-02-04T13:40:41.879Z,40.31
2023-02-04T13:43:08.680Z,39.71
2023-02-04T13:45:35.785Z,39.80
2023-02-04T13:48:02.670Z,39.58
2023-02-04T13:50:30.072Z,39.97
2023-02-04T13:52:56.824Z,39.62
2023-02-04T13:55:24.291Z,40.20
2023-02-04T13:57:50.922Z,40.78
2023-02-04T14:00:17.947Z,41.33
2023-02-04T14:02:44.658Z,41.75
2023-02-04T14:05:11.515Z,40.58
2023-02-04T14:07:38.103Z,40.69
2023-02-04T14:10:05.177Z,39.88
2023-02-04T14:12:31.783Z,39.12
2023-02-04T14:14:58.540Z,39.23
2023-02-04T14:17:25.270Z,40.99
2023-02-04T14:19:51.909Z,40.93
2023-02-04T14:22:18.564Z,41.23
2023-02-04T14:24:47.434Z,40.92
2023-02-04T14:27:17.069Z,41.53
2023-02-04T14:29:43.732Z,41.16
2023-02-04T14:32:10.388Z,41.40
2023-02-04T14:34:37.084Z,41.16
2023-02-04T14:37:03.703Z,41.75
2023-02-04T14:39:30.335Z,41.34
2023-02-04T14:41:57.059Z,41.35
2023-02-04T14:44:23.676Z,42.05
2023-02-04T14:46:50.438Z,42.76
2023-02-04T14:49:17.504Z,43.09
2023-02-04T14:51:44.580Z,43.80
2023-02-04T14:54:11.335Z,44.00
2023-02-04T14:56:38.323Z,44.28
2023-02-04T14:59:05.203Z,45.40
2023-02-04T15:01:32.037Z,44.79
2023-02-04T15:03:58.809Z,45.35
2023-02-04T15:06:25.550Z,45.81
2023-02-04T15:08:52.377Z,45.84
2023-02-04T15:11:19.095Z,46.01
2023-02-04T15:13:46.617Z,46.16
2023-02-04T15:16:14.747Z,45.85
2023-02-04T15:18:41.885Z,46.66
2023-02-04T15:21:08.620Z,46.12
2023-02-04T15:23:35.361Z,45.98
2023-02-04T15:26:05.130Z,45.75
2023-02-04T15:28:31.989Z,46.20
2023-02-04T15:30:58.815Z,46.45
2023-02-04T15:33:25.608Z,46.87
2023-02-04T15:35:52.286Z,47.02
2023-02-04T15:38:19.128Z,47.31
2023-02-04T15:40:45.858Z,47.28
2023-02-04T15:43:12.554Z,46.99
2023-02-04T15:45:41.424Z,47.29
2023-02-04T15:48:08.522Z,47.72
2023-02-04T15:50:35.598Z,47.69
2023-02-04T15:53:02.651Z,48.01
2023-02-04T15:55:29.522Z,48.27
2023-02-04T15:57:56.323Z,48.30
2023-02-04T16:00:25.275Z,48.28
2023-02-04T16:02:52.023Z,47.75
2023-02-04T16:05:18.793Z,47.57
2023-02-04T16:07:45.538Z,47.64
2023-02-04T16:10:12.270Z,48.01
2023-02-04T16:12:41.825Z,48.29
2023-02-04T16:15:09.382Z,48.21
2023-02-04T16:17:36.644Z,48.56
2023-02-04T16:20:03.891Z,48.22
2023-02-04T16:22:30.777Z,48.33
2023-02-04T16:24:57.518Z,48.25
2023-02-04T16:27:24.395Z,48.52
2023-02-04T16:29:51.229Z,48.88
2023-02-04T16:32:18.125Z,49.19
2023-02-04T16:34:45.289Z,49.07
2023-02-04T16:37:12.103Z,49.56
2023-02-04T16:39:39.008Z,50.16
2023-02-04T16:42:08.566Z,49.93
2023-02-04T16:44:38.674Z,49.73
2023-02-04T16:47:06.950Z,49.84
2023-02-04T16:49:34.228Z,49.97
2023-02-04T16:52:04.234Z,50.11
2023-02-04T16:54:31.749Z,50.83
2023-02-04T16:57:00.327Z,51.69
2023-02-04T16:59:28.359Z,52.24
2023-02-04T17:01:57.588Z,52.44
2023-02-04T17:04:28.990Z,51.92
2023-02-04T17:06:56.471Z,52.38
2023-02-04T17:09:23.166Z,53.42
2023-02-04T17:11:49.897Z,53.19
2023-02-04T17:14:16.638Z,52.76
2023-02-04T17:16:43.926Z,52.65
2023-02-04T17:19:10.878Z,52.25
2023-02-04T17:21:40.768Z,52.86
2023-02-04T17:24:08.431Z,53.30
2023-02-04T17:26:39.714Z,53.47
2023-02-04T17:29:08.822Z,53.43
2023-02-04T17:31:35.962Z,53.84
2023-02-04T17:34:03.271Z,53.72
2023-02-04T17:36:31.166Z,53.98
2023-02-04T17:38:57.967Z,53.73
2023-02-04T17:41:24.705Z,53.68
2023-02-04T17:43:51.504Z,54.16
2023-02-04T17:46:18.242Z,54.67
2023-02-04T17:48:44.938Z,54.90
2023-02-04T17:51:11.723Z,54.62
2023-02-04T17:53:40.402Z,54.84
2023-02-04T17:56:12.292Z,54.56
2023-02-04T17:58:39.541Z,54.51
2023-02-04T18:01:15.702Z,54.77
2023-02-04T18:03:43.229Z,55.46
2023-02-04T18:06:27.121Z,55.14
2023-02-04T18:09:01.146Z,55.02
2023-02-04T18:11:31.760Z,55.24
2023-02-04T18:14:25.216Z,55.28
2023-02-04T18:16:56.758Z,56.30
2023-02-04T18:19:30.866Z,55.74
2023-02-04T18:21:58.656Z,56.45
2023-02-04T18:24:30.324Z,56.52
2023-02-04T18:27:01.221Z,56.46
2023-02-04T18:29:33.004Z,56.39
2023-02-04T18:32:25.883Z,56.40
2023-02-04T18:34:55.154Z,56.42
2023-02-04T18:37:42.126Z,56.44
2023-02-04T18:40:08.748Z,56.72
2023-02-04T18:42:43.651Z,57.11
2023-02-04T18:45:31.014Z,56.49
2023-02-04T18:48:00.404Z,56.38
2023-02-04T18:50:34.323Z,56.43
2023-02-04T18:53:13.493Z,56.46
2023-02-04T18:55:51.362Z,56.28
2023-02-04T18:58:36.143Z,56.33
2023-02-04T19:01:11.643Z,56.54
2023-02-04T19:04:02.190Z,56.55
2023-02-04T19:06:39.331Z,56.55
2023-02-04T19:09:12.192Z,56.91
2023-02-04T19:11:41.802Z,57.54
2023-02-04T19:14:22.892Z,57.75
2023-02-04T19:16:52.471Z,58.08
2023-02-04T19:19:39.193Z,58.07
2023-02-04T19:22:26.955Z,58.17
2023-02-04T19:25:19.177Z,58.43
2023-02-04T19:27:50.891Z,58.47
2023-02-04T19:30:26.790Z,57.87
2023-02-04T19:32:58.066Z,57.32
2023-02-04T19:35:35.476Z,57.70
2023-02-04T19:38:28.677Z,58.13
2023-02-04T19:40:55.376Z,58.18
2023-02-04T19:43:24.316Z,58.16
2023-02-04T19:45:51.241Z,58.02
2023-02-04T19:48:38.313Z,57.94
2023-02-04T19:51:17.790Z,58.06
2023-02-04T19:53:46.962Z,58.12
2023-02-04T19:56:43.364Z,58.28
2023-02-04T19:59:29.583Z,58.52
2023-02-04T20:02:21.391Z,58.61
2023-02-04T20:04:54.084Z,58.60
2023-02-04T20:07:25.032Z,58.72
2023-02-04T20:10:22.497Z,58.75
2023-02-04T20:12:52.175Z,58.32
2023-02-04T20:15:20.926Z,58.84
2023-02-04T20:17:49.088Z,58.95
2023-02-04T20:20:30.967Z,58.83
2023-02-04T20:22:59.427Z,59.28
2023-02-04T20:25:39.689Z,59.36
2023-02-04T20:28:19.583Z,59.15
2023-02-04T20:30:49.260Z,59.19
2023-02-04T20:33:29.691Z,58.76
2023-02-04T20:36:28.170Z,58.85
2023-02-04T20:39:19.735Z,58.56
2023-02-04T20:41:47.080Z,58.94
2023-02-04T20:44:23.213Z,58.41
2023-02-04T20:46:49.898Z,58.96
2023-02-04T20:49:26.171Z,58.88
2023-02-04T20:52:00.068Z,59.06
2023-02-04T20:54:30.389Z,58.61
2023-02-04T20:57:14.846Z,58.67
2023-02-04T20:59:42.804Z,58.68
2023-02-04T21:02:20.925Z,59.00
2023-02-04T21:04:53.557Z,58.86
2023-02-04T21:07:22.589Z,59.21
2023-02-04T21:09:49.874Z,58.78
2023-02-04T21:12:16.636Z,59.14
2023-02-04T21:14:43.350Z,59.28
2023-02-04T21:17:09.988Z,59.21
2023-02-04T21:19:37.394Z,59.58
2023-02-04T21:22:04.104Z,59.81
2023-02-04T21:24:31.802Z,59.80
2023-02-04T21:26:58.863Z,59.78
2023-02-04T21:29:26.073Z,59.92
2023-02-04T21:31:54.376Z,59.61
2023-02-04T21:34:21.485Z,60.13
2023-02-04T21:36:48.215Z,59.86
2023-02-04T21:39:14.927Z,59.94
2023-02-04T21:41:41.564Z,59.75
2023-02-04T21:44:08.329Z,60.09
2023-02-04T21:46:35.045Z,60.16
2023-02-04T21:49:02.411Z,60.26
2023-02-04T21:51:29.139Z,60.34
2023-02-04T21:53:55.945Z,60.15
2023-02-04T21:56:22.672Z,60.19
2023-02-04T21:58:49.324Z,60.12
2023-02-04T22:01:15.945Z,60.01
2023-02-04T22:03:42.701Z,59.94
2023-02-04T22:06:09.356Z,59.83
2023-02-04T22:08:36.001Z,60.32
2023-02-04T22:11:02.752Z,60.18
2023-02-04T22:13:29.372Z,60.15
2023-02-04T22:15:56.109Z,60.30
2023-02-04T22:18:22.988Z,60.83
2023-02-04T22:20:49.624Z,61.43
2023-02-04T22:23:16.568Z,62.08
2023-02-04T22:25:46.315Z,61.28
2023-02-04T22:28:14.235Z,60.92
2023-02-04T22:30:40.907Z,60.42
2023-02-04T22:33:07.625Z,60.47
2023-02-04T22:35:36.656Z,60.81
2023-02-04T22:38:03.474Z,61.09
2023-02-04T22:40:30.453Z,60.52
2023-02-04T22:42:57.171Z,61.16
2023-02-04T22:45:23.841Z,61.67
2023-02-04T22:47:50.540Z,62.58
2023-02-04T22:50:17.233Z,62.97
2023-02-04T22:52:44.093Z,63.32
2023-02-04T22:55:10.829Z,63.20
2023-02-04T22:57:37.481Z,63.56
2023-02-04T23:00:08.907Z,62.95
2023-02-04T23:02:35.683Z,63.57
2023-02-04T23:05:03.204Z,63.87
2023-02-04T23:07:30.807Z,63.96
2023-02-04T23:09:57.604Z,63.93
2023-02-04T23:12:24.321Z,62.48
2023-02-04T23:14:51.110Z,62.81
2023-02-04T23:17:18.241Z,63.56
2023-02-04T23:19:45.438Z,63.58
2023-02-04T23:22:13.228Z,63.92
2023-02-04T23:24:41.168Z,64.24
2023-02-04T23:27:10.752Z,64.75
2023-02-04T23:29:38.375Z,65.26
2023-02-04T23:32:05.207Z,64.97
2023-02-04T23:34:34.655Z,65.77
2023-02-04T23:37:01.751Z,65.42
2023-02-04T23:39:28.596Z,65.32
2023-02-04T23:41:55.286Z,65.69
2023-02-04T23:44:21.922Z,64.85
2023-02-04T23:46:48.640Z,64.68
2023-02-04T23:49:15.724Z,64.84
2023-02-04T23:51:42.473Z,64.63
2023-02-04T23:54:09.190Z,64.52
2023-02-04T23:56:35.927Z,64.69
2023-02-04T23:59:02.740Z,65.32
